Himyar, Kentucky
Current Conditions -  °F | °C
As of 11:53 PM on Friday 28 Nov 2014 (Local Time) from KLOZ Reporting Station
Clear Clear  
Wind Chill: 31°   Ceiling: Unl
Heat Index: 36°   Visibility: 10mi
Dew Point: 17°   Wind: 6mph
Humidity: 46%   Direction: 170°S
Pressure: 30.13"   Gusts: NA
Location:  36.865°N, 83.9507°W
Report Text: KLOZ 290453Z AUTO 17005KT 10SM CLR 02/M08 A3013 RMK AO2 SLP209 T00221083 400391044
Loading
Personal Weather Stations






























Interactive Weather Map New forecast layout! Learn more

10-Day Weather Forecast

Advertisements
Track Severe Weather on mobile